Time;durP1;ratioP1;P1;durP2;ratioP2;P2;SDS_P1;SDS_P2;PMS_P1;PMS_P2;Temp;Humidity;BMP_temperature;BMP_pressure;BME280_temperature;BME280_humidity;BME280_pressure;Samples;Min_cycle;Max_cycle;Signal;HPM_P1;HPM_P2
2023/03/09 00:02:25;;;;;;;2.55;1.45;;;;;;;;;;4927593;28;20538;-65
2023/03/09 00:06:12;;;;;;;9.75;1.88;;;;;;;;;;4926065;28;20533;-65
2023/03/09 00:09:52;;;;;;;2.80;1.27;;;;;;;;;;4931226;28;20110;-63
2023/03/09 00:13:32;;;;;;;2.47;1.67;;;;;;;;;;4925613;28;20055;-65
2023/03/09 00:17:13;;;;;;;1.98;1.15;;;;;;;;;;4924058;28;20102;-63
2023/03/09 00:20:53;;;;;;;2.10;1.30;;;;;;;;;;4932652;28;20444;-66
2023/03/09 00:24:33;;;;;;;2.97;1.40;;;;;;;;;;4935451;28;20142;-63
2023/03/09 00:28:13;;;;;;;4.18;1.45;;;;;;;;;;4931816;28;20039;-62
2023/03/09 00:31:54;;;;;;;1.95;1.30;;;;;;;;;;4931122;28;20051;-64
2023/03/09 00:35:34;;;;;;;2.33;1.10;;;;;;;;;;4934443;28;20050;-64
2023/03/09 00:39:15;;;;;;;1.58;1.20;;;;;;;;;;4933696;28;20141;-63
2023/03/09 00:42:55;;;;;;;2.47;1.30;;;;;;;;;;4933400;28;20051;-63
2023/03/09 00:46:35;;;;;;;4.85;1.35;;;;;;;;;;4931993;28;21354;-63
2023/03/09 00:50:16;;;;;;;1.88;1.20;;;;;;;;;;4929911;28;22275;-65
2023/03/09 00:53:56;;;;;;;3.28;1.20;;;;;;;;;;4932778;28;20066;-63
2023/03/09 00:57:37;;;;;;;2.97;1.13;;;;;;;;;;4927523;28;20054;-65
2023/03/09 01:01:17;;;;;;;5.10;1.58;;;;;;;;;;4934200;28;20058;-64
2023/03/09 01:04:58;;;;;;;1.92;1.33;;;;;;;;;;4927408;28;20065;-65
2023/03/09 01:08:39;;;;;;;4.03;1.30;;;;;;;;;;4934055;28;20117;-63
2023/03/09 01:12:19;;;;;;;1.30;1.00;;;;;;;;;;4931659;28;20095;-62
2023/03/09 01:15:59;;;;;;;1.95;1.40;;;;;;;;;;4930629;28;20070;-65
2023/03/09 01:19:40;;;;;;;3.08;1.30;;;;;;;;;;4926588;28;20060;-63
2023/03/09 01:23:21;;;;;;;2.88;1.27;;;;;;;;;;4928073;28;20149;-64
2023/03/09 01:27:01;;;;;;;2.38;1.40;;;;;;;;;;4932353;28;20675;-63
2023/03/09 01:30:42;;;;;;;4.22;1.33;;;;;;;;;;4931816;28;20051;-63
2023/03/09 01:34:22;;;;;;;1.83;1.27;;;;;;;;;;4931602;28;20102;-63
2023/03/09 01:38:02;;;;;;;5.32;1.33;;;;;;;;;;4927296;28;20502;-63
2023/03/09 01:41:43;;;;;;;2.35;1.45;;;;;;;;;;4930187;28;20047;-65
2023/03/09 01:45:09;;;;;;;1.95;1.30;;;;;;;;;;4928353;28;20066;-64
2023/03/09 01:48:49;;;;;;;2.42;1.30;;;;;;;;;;4936627;28;20043;-64
2023/03/09 01:52:14;;;;;;;2.03;1.10;;;;;;;;;;4932315;28;20067;-63
2023/03/09 01:55:55;;;;;;;2.67;1.20;;;;;;;;;;4934584;28;20051;-65
2023/03/09 01:59:35;;;;;;;1.77;1.27;;;;;;;;;;4934992;28;20151;-63
2023/03/09 02:03:18;;;;;;;2.53;1.30;;;;;;;;;;4933124;28;20095;-63
2023/03/09 02:06:59;;;;;;;2.20;1.33;;;;;;;;;;4936247;28;20063;-63
2023/03/09 02:10:43;;;;;;;1.50;1.15;;;;;;;;;;4934550;28;21408;-61
2023/03/09 02:14:23;;;;;;;1.73;1.17;;;;;;;;;;4935349;28;20491;-64
2023/03/09 02:18:03;;;;;;;2.10;1.30;;;;;;;;;;4932827;28;20067;-62
2023/03/09 02:21:20;;;;;;;2.10;1.23;;;;;;;;;;4936273;28;20145;-63
2023/03/09 02:24:45;;;;;;;1.67;1.17;;;;;;;;;;4933481;28;20066;-62
2023/03/09 02:28:27;;;;;;;2.50;1.20;;;;;;;;;;4934988;28;20050;-64
2023/03/09 02:32:07;;;;;;;3.08;1.40;;;;;;;;;;4935575;28;20192;-65
2023/03/09 02:35:47;;;;;;;1.73;1.20;;;;;;;;;;4937316;28;20054;-62
2023/03/09 02:39:28;;;;;;;2.42;1.50;;;;;;;;;;4936379;28;20057;-63
2023/03/09 02:43:10;;;;;;;1.88;1.27;;;;;;;;;;4932389;28;20138;-61
2023/03/09 02:46:50;;;;;;;2.20;1.67;;;;;;;;;;4933115;28;20134;-63
2023/03/09 02:50:30;;;;;;;3.05;1.50;;;;;;;;;;4930437;28;20054;-62
2023/03/09 02:54:10;;;;;;;3.00;1.40;;;;;;;;;;4934020;28;20444;-63
2023/03/09 02:57:51;;;;;;;2.65;1.65;;;;;;;;;;4932368;28;20055;-62
2023/03/09 03:01:31;;;;;;;2.83;1.65;;;;;;;;;;4933917;28;20239;-63
2023/03/09 03:05:11;;;;;;;4.47;1.38;;;;;;;;;;4933523;28;20055;-64
2023/03/09 03:08:52;;;;;;;2.97;1.27;;;;;;;;;;4935060;28;20641;-63
2023/03/09 03:12:33;;;;;;;3.25;1.50;;;;;;;;;;4933507;28;20056;-62
2023/03/09 03:16:13;;;;;;;5.10;1.77;;;;;;;;;;4933419;28;20380;-63
2023/03/09 03:19:54;;;;;;;3.70;1.70;;;;;;;;;;4933169;28;20074;-62
2023/03/09 03:23:38;;;;;;;2.83;1.42;;;;;;;;;;4932253;28;20055;-63
2023/03/09 03:27:19;;;;;;;2.30;1.50;;;;;;;;;;4928166;28;20198;-63
2023/03/09 03:31:14;;;;;;;2.17;1.38;;;;;;;;;;4931568;28;20063;-63
2023/03/09 03:34:56;;;;;;;3.15;1.60;;;;;;;;;;4934134;28;20066;-63
2023/03/09 03:38:36;;;;;;;6.00;1.70;;;;;;;;;;4930882;28;20051;-63
2023/03/09 03:42:17;;;;;;;5.18;1.63;;;;;;;;;;4931458;28;20217;-65
2023/03/09 03:45:58;;;;;;;2.65;1.52;;;;;;;;;;4932307;28;20047;-65
2023/03/09 03:49:38;;;;;;;4.40;1.80;;;;;;;;;;4932544;28;20888;-61
2023/03/09 03:53:18;;;;;;;2.95;1.70;;;;;;;;;;4930231;28;20047;-62
2023/03/09 03:56:59;;;;;;;3.08;1.50;;;;;;;;;;4932434;28;20074;-62
2023/03/09 04:00:39;;;;;;;3.75;1.58;;;;;;;;;;4935403;28;20260;-63
2023/03/09 04:04:20;;;;;;;3.08;1.70;;;;;;;;;;4929560;28;20570;-63
2023/03/09 04:08:01;;;;;;;3.92;1.63;;;;;;;;;;4930214;28;20062;-63
2023/03/09 04:11:45;;;;;;;2.55;1.52;;;;;;;;;;4930258;28;20792;-64
2023/03/09 04:15:25;;;;;;;3.88;1.83;;;;;;;;;;4928003;28;20047;-63
2023/03/09 04:19:05;;;;;;;3.05;1.60;;;;;;;;;;4928950;28;20075;-63
2023/03/09 04:22:46;;;;;;;3.88;1.70;;;;;;;;;;4934085;28;20055;-66
2023/03/09 04:26:35;;;;;;;4.25;1.98;;;;;;;;;;4930909;28;20122;-64
2023/03/09 04:30:20;;;;;;;5.03;2.10;;;;;;;;;;4933340;28;20047;-63
2023/03/09 04:33:57;;;;;;;5.38;1.80;;;;;;;;;;4935127;28;20062;-64
2023/03/09 04:37:37;;;;;;;3.42;1.95;;;;;;;;;;4932448;28;20063;-63
2023/03/09 04:41:17;;;;;;;3.30;2.00;;;;;;;;;;4933549;28;20071;-64
2023/03/09 04:44:58;;;;;;;3.25;1.70;;;;;;;;;;4933484;28;20407;-64
2023/03/09 04:48:39;;;;;;;3.38;1.63;;;;;;;;;;4930008;28;20055;-64
2023/03/09 04:52:20;;;;;;;5.07;1.92;;;;;;;;;;4931040;28;20543;-64
2023/03/09 04:56:00;;;;;;;4.13;2.00;;;;;;;;;;4930041;28;20129;-63
2023/03/09 04:59:41;;;;;;;4.90;1.90;;;;;;;;;;4931300;28;20047;-64
2023/03/09 05:03:21;;;;;;;4.15;1.83;;;;;;;;;;4925124;28;20522;-63
2023/03/09 05:07:02;;;;;;;4.30;1.80;;;;;;;;;;4929407;28;20084;-63
2023/03/09 05:10:43;;;;;;;4.43;1.95;;;;;;;;;;4929102;28;20043;-63
2023/03/09 05:14:23;;;;;;;5.32;2.30;;;;;;;;;;4930226;28;20047;-66
2023/03/09 05:18:03;;;;;;;8.30;1.80;;;;;;;;;;4927604;28;20105;-64
2023/03/09 05:21:44;;;;;;;4.10;2.03;;;;;;;;;;4928388;28;20059;-65
2023/03/09 05:25:25;;;;;;;2.53;1.80;;;;;;;;;;4927954;28;20117;-65
2023/03/09 05:29:05;;;;;;;4.47;1.98;;;;;;;;;;4928801;28;20055;-63
2023/03/09 05:32:06;;;;;;;5.90;1.70;;;;;;;;;;4929425;28;20055;-64
2023/03/09 05:35:12;;;;;;;6.97;1.90;;;;;;;;;;4929348;28;20059;-65
2023/03/09 05:38:52;;;;;;;3.95;1.85;;;;;;;;;;4930576;28;20042;-65
2023/03/09 05:42:34;;;;;;;4.18;1.80;;;;;;;;;;4931686;28;20067;-64
2023/03/09 05:45:34;;;;;;;4.45;1.80;;;;;;;;;;4926842;28;20403;-63
2023/03/09 05:48:00;;;;;;;3.50;2.03;;;;;;;;;;4939682;28;20518;-64
2023/03/09 05:50:29;;;;;;;3.13;1.92;;;;;;;;;;4931736;28;20059;-65
2023/03/09 05:52:55;;;;;;;5.03;1.90;;;;;;;;;;4935016;28;20675;-63
2023/03/09 05:55:21;;;;;;;3.78;2.05;;;;;;;;;;4931903;28;20237;-61
2023/03/09 05:57:47;;;;;;;5.28;2.00;;;;;;;;;;4936658;28;20055;-64
2023/03/09 06:00:15;;;;;;;4.70;1.77;;;;;;;;;;4932955;28;20051;-63
2023/03/09 06:02:41;;;;;;;3.60;1.90;;;;;;;;;;4934598;28;20059;-64
2023/03/09 06:05:07;;;;;;;3.17;1.80;;;;;;;;;;4939367;28;20069;-62
2023/03/09 06:07:33;;;;;;;5.35;1.85;;;;;;;;;;4935301;28;20149;-62
2023/03/09 06:10:00;;;;;;;2.70;1.70;;;;;;;;;;4929776;28;20439;-63
2023/03/09 06:12:26;;;;;;;4.13;1.90;;;;;;;;;;4933609;28;20063;-63
2023/03/09 06:14:52;;;;;;;4.47;1.95;;;;;;;;;;4929142;28;20047;-64
2023/03/09 06:17:19;;;;;;;4.28;2.00;;;;;;;;;;4932111;28;20066;-64
2023/03/09 06:19:49;;;;;;;8.23;1.80;;;;;;;;;;4930431;28;20419;-63
2023/03/09 06:22:16;;;;;;;2.70;1.75;;;;;;;;;;4931239;28;20065;-64
2023/03/09 06:24:42;;;;;;;3.63;1.80;;;;;;;;;;4931099;28;20450;-63
2023/03/09 06:27:09;;;;;;;3.15;1.80;;;;;;;;;;4936110;28;20055;-65
2023/03/09 06:29:35;;;;;;;2.20;1.60;;;;;;;;;;4932187;28;20047;-64
2023/03/09 06:32:01;;;;;;;5.97;2.60;;;;;;;;;;4936228;28;20697;-63
2023/03/09 06:34:30;;;;;;;3.55;1.90;;;;;;;;;;4937552;28;20054;-65
2023/03/09 06:36:57;;;;;;;3.78;1.77;;;;;;;;;;4933813;28;20054;-68
2023/03/09 06:39:23;;;;;;;7.55;2.08;;;;;;;;;;4915414;28;20062;-64
2023/03/09 06:41:50;;;;;;;5.00;1.90;;;;;;;;;;4917110;28;20253;-70
2023/03/09 06:44:18;;;;;;;3.88;2.00;;;;;;;;;;4932834;28;20059;-64
2023/03/09 06:46:44;;;;;;;3.38;1.73;;;;;;;;;;4933304;28;20419;-65
2023/03/09 06:49:11;;;;;;;5.68;1.83;;;;;;;;;;4932470;28;20058;-65
2023/03/09 06:51:38;;;;;;;4.85;1.80;;;;;;;;;;4931553;28;20055;-68
2023/03/09 06:54:04;;;;;;;4.32;1.58;;;;;;;;;;4916417;28;20062;-62
2023/03/09 06:56:31;;;;;;;3.15;1.80;;;;;;;;;;4934011;28;20511;-65
2023/03/09 06:58:57;;;;;;;5.63;2.17;;;;;;;;;;4930865;28;20434;-63
2023/03/09 07:02:03;;;;;;;7.80;2.22;;;;;;;;;;4931851;28;20507;-65
2023/03/09 07:05:44;;;;;;;4.03;1.90;;;;;;;;;;4936053;28;20182;-63
2023/03/09 07:09:24;;;;;;;5.65;1.90;;;;;;;;;;4927754;28;20050;-63
2023/03/09 07:13:04;;;;;;;6.22;2.00;;;;;;;;;;4932199;28;20083;-63
2023/03/09 07:16:45;;;;;;;6.32;2.20;;;;;;;;;;4929493;28;20053;-63
2023/03/09 07:20:26;;;;;;;5.10;1.60;;;;;;;;;;4934346;28;20051;-63
2023/03/09 07:24:06;;;;;;;9.10;2.00;;;;;;;;;;4931026;28;20067;-64
2023/03/09 07:27:07;;;;;;;6.30;2.10;;;;;;;;;;4930307;28;20087;-64
2023/03/09 07:29:38;;;;;;;4.97;1.55;;;;;;;;;;4930317;28;20964;-68
2023/03/09 07:32:04;;;;;;;5.15;1.90;;;;;;;;;;4924118;28;20059;-66
2023/03/09 07:34:34;;;;;;;4.65;1.98;;;;;;;;;;4930652;28;20062;-65
2023/03/09 07:37:00;;;;;;;6.03;1.90;;;;;;;;;;4933136;28;20058;-62
2023/03/09 07:39:29;;;;;;;3.80;1.80;;;;;;;;;;4933358;28;20054;-65
2023/03/09 07:41:55;;;;;;;6.68;2.50;;;;;;;;;;4931723;28;20051;-68
2023/03/09 07:45:02;;;;;;;4.40;2.15;;;;;;;;;;4928596;28;20055;-64
2023/03/09 07:48:43;;;;;;;3.60;1.85;;;;;;;;;;4928321;28;20122;-63
2023/03/09 07:52:30;;;;;;;2.67;1.83;;;;;;;;;;4933759;28;20135;-63
2023/03/09 07:56:05;;;;;;;3.47;2.05;;;;;;;;;;4930881;28;20062;-63
2023/03/09 07:59:46;;;;;;;4.13;1.83;;;;;;;;;;4931711;28;20177;-64
2023/03/09 08:03:26;;;;;;;5.32;2.13;;;;;;;;;;4930516;28;20075;-64
2023/03/09 08:07:08;;;;;;;8.35;2.42;;;;;;;;;;4932517;28;20059;-63
2023/03/09 08:10:48;;;;;;;4.85;2.00;;;;;;;;;;4932210;28;20138;-64
2023/03/09 08:14:30;;;;;;;5.05;2.13;;;;;;;;;;4924299;28;20058;-63
2023/03/09 08:18:10;;;;;;;5.13;2.00;;;;;;;;;;4924603;28;20046;-66
2023/03/09 08:21:51;;;;;;;3.58;1.90;;;;;;;;;;4930934;28;20065;-66
2023/03/09 08:24:52;;;;;;;4.47;1.90;;;;;;;;;;4928265;28;20150;-63
2023/03/09 08:27:18;;;;;;;3.17;1.85;;;;;;;;;;4930073;28;20055;-64
2023/03/09 08:29:45;;;;;;;8.40;1.75;;;;;;;;;;4899373;28;20146;-64
2023/03/09 08:32:12;;;;;;;7.05;2.00;;;;;;;;;;4930001;28;20051;-64
2023/03/09 08:34:38;;;;;;;6.82;1.98;;;;;;;;;;4929700;28;20111;-63
2023/03/09 08:37:04;;;;;;;5.78;1.95;;;;;;;;;;4929573;28;20183;-64
2023/03/09 08:39:30;;;;;;;3.15;2.03;;;;;;;;;;4934849;28;20109;-68
2023/03/09 08:41:57;;;;;;;8.57;2.00;;;;;;;;;;4929041;28;20062;-66
2023/03/09 08:44:23;;;;;;;6.72;2.15;;;;;;;;;;4933785;28;20063;-65
2023/03/09 08:46:49;;;;;;;4.72;2.17;;;;;;;;;;4925890;28;20055;-63
2023/03/09 08:49:15;;;;;;;5.55;2.30;;;;;;;;;;4935113;28;20055;-64
2023/03/09 08:51:41;;;;;;;8.48;2.30;;;;;;;;;;4930524;28;20321;-63
2023/03/09 08:54:09;;;;;;;6.40;2.22;;;;;;;;;;4927255;28;20081;-64
2023/03/09 08:56:35;;;;;;;3.15;1.95;;;;;;;;;;4929473;28;20070;-64
2023/03/09 08:59:02;;;;;;;7.38;2.25;;;;;;;;;;4935388;28;20511;-65
2023/03/09 09:01:32;;;;;;;5.57;2.20;;;;;;;;;;4930672;28;20055;-64
2023/03/09 09:03:58;;;;;;;4.85;2.20;;;;;;;;;;4927216;28;20054;-67
2023/03/09 09:06:24;;;;;;;7.20;1.80;;;;;;;;;;4928600;28;20070;-64
2023/03/09 09:08:50;;;;;;;3.58;1.60;;;;;;;;;;4927377;28;20047;-64
2023/03/09 09:11:23;;;;;;;8.20;2.08;;;;;;;;;;4931459;28;20483;-64
2023/03/09 09:13:52;;;;;;;3.10;1.80;;;;;;;;;;4930496;28;20214;-65
2023/03/09 09:16:20;;;;;;;4.45;2.08;;;;;;;;;;4930607;28;20054;-64
2023/03/09 09:18:47;;;;;;;6.38;2.00;;;;;;;;;;4929567;28;20062;-63
2023/03/09 09:21:16;;;;;;;5.40;1.75;;;;;;;;;;4928607;28;20059;-65
2023/03/09 09:23:43;;;;;;;3.75;1.75;;;;;;;;;;4925246;28;20062;-62
2023/03/09 09:26:13;;;;;;;5.30;2.10;;;;;;;;;;4924825;28;20068;-67
2023/03/09 09:28:39;;;;;;;4.65;1.95;;;;;;;;;;4909499;28;20051;-64
2023/03/09 09:31:09;;;;;;;4.85;1.70;;;;;;;;;;4927074;28;20074;-64
2023/03/09 09:33:36;;;;;;;10.10;2.05;;;;;;;;;;4911587;28;20139;-65
2023/03/09 09:36:10;;;;;;;4.07;1.70;;;;;;;;;;4931580;28;20431;-66
2023/03/09 09:38:38;;;;;;;3.28;1.70;;;;;;;;;;4925045;28;20174;-65
2023/03/09 09:41:13;;;;;;;4.30;1.63;;;;;;;;;;4934824;28;20593;-67
2023/03/09 09:43:41;;;;;;;7.07;2.00;;;;;;;;;;4926357;28;20090;-63
2023/03/09 09:46:12;;;;;;;4.18;2.10;;;;;;;;;;4929608;28;20118;-67
2023/03/09 09:48:41;;;;;;;4.88;1.98;;;;;;;;;;4945672;28;20112;-62
2023/03/09 09:51:30;;;;;;;6.78;2.10;;;;;;;;;;4926084;29;20549;-66
2023/03/09 09:54:47;;;;;;;5.55;2.08;;;;;;;;;;4935182;28;20130;-66
2023/03/09 09:58:14;;;;;;;4.93;1.98;;;;;;;;;;4905840;29;20248;-67
2023/03/09 10:02:13;;;;;;;5.28;2.25;;;;;;;;;;4906109;29;20107;-67
2023/03/09 10:05:39;;;;;;;5.28;1.95;;;;;;;;;;4887986;29;20447;-67
2023/03/09 10:08:46;;;;;;;5.43;1.88;;;;;;;;;;4889156;29;20501;-67
2023/03/09 10:12:26;;;;;;;4.38;1.70;;;;;;;;;;4887300;29;20051;-66
2023/03/09 10:16:06;;;;;;;5.63;1.67;;;;;;;;;;4890135;29;20054;-67
2023/03/09 10:19:53;;;;;;;5.85;2.10;;;;;;;;;;4890990;29;20047;-65
2023/03/09 10:23:35;;;;;;;6.85;2.00;;;;;;;;;;4891090;29;20125;-66
2023/03/09 10:27:21;;;;;;;6.20;2.00;;;;;;;;;;4892084;29;20048;-65
2023/03/09 10:30:28;;;;;;;8.38;1.98;;;;;;;;;;4886119;29;20059;-65
2023/03/09 10:34:17;;;;;;;5.35;1.92;;;;;;;;;;4892034;29;20040;-66
2023/03/09 10:37:59;;;;;;;5.43;1.80;;;;;;;;;;4892261;29;20059;-65
2023/03/09 10:41:39;;;;;;;4.70;1.70;;;;;;;;;;4893468;29;20055;-65
2023/03/09 10:45:19;;;;;;;5.45;1.60;;;;;;;;;;4893854;29;20147;-65
2023/03/09 10:49:00;;;;;;;3.35;1.73;;;;;;;;;;4896905;29;20049;-63
2023/03/09 10:52:40;;;;;;;6.15;2.10;;;;;;;;;;4895306;29;20056;-67
2023/03/09 10:56:23;;;;;;;5.38;1.90;;;;;;;;;;4904793;28;20396;-65
2023/03/09 11:00:16;;;;;;;5.30;1.90;;;;;;;;;;4932904;28;20130;-63
2023/03/09 11:03:59;;;;;;;6.07;1.85;;;;;;;;;;4932108;28;20051;-65
2023/03/09 11:07:39;;;;;;;8.63;2.22;;;;;;;;;;4929756;28;20055;-68
2023/03/09 11:11:20;;;;;;;4.38;1.80;;;;;;;;;;4931860;28;20138;-65
2023/03/09 11:14:23;;;;;;;8.88;2.25;;;;;;;;;;4932630;28;20728;-64
2023/03/09 11:18:19;;;;;;;2.85;1.52;;;;;;;;;;4931652;28;20050;-64
2023/03/09 11:22:11;;;;;;;5.43;1.67;;;;;;;;;;4931224;28;20050;-64
2023/03/09 11:25:44;;;;;;;6.05;1.77;;;;;;;;;;4930507;28;20065;-66
2023/03/09 11:29:19;;;;;;;4.53;1.50;;;;;;;;;;4930653;28;20551;-62
2023/03/09 11:32:59;;;;;;;2.50;1.63;;;;;;;;;;4931341;28;20065;-64
2023/03/09 11:36:40;;;;;;;2.58;1.33;;;;;;;;;;4935795;28;20051;-69
2023/03/09 11:40:18;;;;;;;3.00;1.30;;;;;;;;;;4936367;28;20055;-65
2023/03/09 11:44:08;;;;;;;5.68;1.70;;;;;;;;;;4933267;28;20504;-65
2023/03/09 11:48:14;;;;;;;4.18;1.50;;;;;;;;;;4936190;28;20051;-68
2023/03/09 11:51:46;;;;;;;4.07;1.40;;;;;;;;;;4930761;28;20341;-64
2023/03/09 11:55:27;;;;;;;3.00;1.50;;;;;;;;;;4929607;28;20055;-66
2023/03/09 11:59:17;;;;;;;5.95;1.60;;;;;;;;;;4931390;28;20051;-67
2023/03/09 12:02:36;;;;;;;4.72;1.58;;;;;;;;;;4931602;28;20054;-66
2023/03/09 12:06:19;;;;;;;3.85;1.38;;;;;;;;;;4930667;28;20039;-65
2023/03/09 12:09:48;;;;;;;6.63;1.40;;;;;;;;;;4931818;28;20527;-66
2023/03/09 12:13:43;;;;;;;8.50;1.58;;;;;;;;;;4931634;28;21839;-66
2023/03/09 12:17:27;;;;;;;7.97;1.58;;;;;;;;;;4919195;28;22053;-66
2023/03/09 12:20:26;;;;;;;4.28;1.60;;;;;;;;;;4934313;28;20057;-63
2023/03/09 12:23:35;;;;;;;4.97;1.90;;;;;;;;;;4931964;28;20050;-67
2023/03/09 12:27:17;;;;;;;6.40;2.15;;;;;;;;;;4930365;28;20143;-66
2023/03/09 12:31:01;;;;;;;9.70;1.92;;;;;;;;;;4929977;28;20392;-65
2023/03/09 12:34:45;;;;;;;4.20;1.70;;;;;;;;;;4928740;28;20163;-65
2023/03/09 12:38:15;;;;;;;10.45;1.50;;;;;;;;;;4928580;28;20046;-64
2023/03/09 12:41:56;;;;;;;11.20;1.48;;;;;;;;;;4933153;28;20169;-66
2023/03/09 12:45:17;;;;;;;2.10;1.45;;;;;;;;;;4930557;28;20067;-64
2023/03/09 12:49:00;;;;;;;6.93;1.77;;;;;;;;;;4935244;28;20039;-63
2023/03/09 12:52:39;;;;;;;10.18;1.92;;;;;;;;;;4928402;28;20050;-64
2023/03/09 12:55:43;;;;;;;3.72;1.60;;;;;;;;;;4929367;28;20086;-64
2023/03/09 12:59:25;;;;;;;10.15;1.55;;;;;;;;;;4928822;28;20055;-65
2023/03/09 13:03:03;;;;;;;6.13;1.88;;;;;;;;;;4928797;28;20059;-64
2023/03/09 13:06:24;;;;;;;5.47;1.60;;;;;;;;;;4928962;28;20102;-64
2023/03/09 13:09:40;;;;;;;3.67;1.33;;;;;;;;;;4929224;28;20106;-64
2023/03/09 13:12:31;;;;;;;3.53;1.40;;;;;;;;;;4929496;28;20054;-65
2023/03/09 13:14:57;;;;;;;2.67;1.45;;;;;;;;;;4921321;28;20698;-65
2023/03/09 13:17:32;;;;;;;2.10;1.30;;;;;;;;;;4928002;28;20063;-63
2023/03/09 13:20:22;;;;;;;1.83;1.20;;;;;;;;;;4930001;28;20047;-65
2023/03/09 13:22:49;;;;;;;3.08;1.25;;;;;;;;;;4929904;28;20058;-65
2023/03/09 13:25:32;;;;;;;3.75;1.52;;;;;;;;;;4913666;28;20055;-67
2023/03/09 13:28:36;;;;;;;2.85;1.23;;;;;;;;;;4910047;28;20118;-65
2023/03/09 13:31:17;;;;;;;5.43;1.50;;;;;;;;;;4930576;28;20059;-66
2023/03/09 13:33:43;;;;;;;7.10;1.55;;;;;;;;;;4929695;28;20070;-64
2023/03/09 13:36:25;;;;;;;9.05;1.63;;;;;;;;;;4928359;28;20115;-64
2023/03/09 13:39:00;;;;;;;7.40;1.40;;;;;;;;;;4923305;28;20055;-65
2023/03/09 13:41:27;;;;;;;;;;;;;;;;;;4932078;28;20051;-65
2023/03/09 13:43:55;;;;;;;4.78;1.40;;;;;;;;;;4928829;28;19926;-66
2023/03/09 13:46:26;;;;;;;8.50;1.40;;;;;;;;;;4928092;28;20070;-65
2023/03/09 13:48:57;;;;;;;8.10;1.25;;;;;;;;;;4927546;28;20469;-63
2023/03/09 13:51:32;;;;;;;8.25;1.35;;;;;;;;;;4931213;28;20043;-64
2023/03/09 13:53:59;;;;;;;4.80;1.42;;;;;;;;;;4934254;28;20904;-64
2023/03/09 13:56:24;;;;;;;21.52;1.67;;;;;;;;;;4932062;28;20059;-64
2023/03/09 13:58:53;;;;;;;8.25;1.30;;;;;;;;;;4934288;28;20333;-65
2023/03/09 14:01:20;;;;;;;5.75;1.23;;;;;;;;;;4931670;28;20487;-64
2023/03/09 14:03:48;;;;;;;7.45;1.50;;;;;;;;;;4914358;28;20066;-63
2023/03/09 14:06:15;;;;;;;12.50;1.55;;;;;;;;;;4931772;28;20564;-64
2023/03/09 14:08:44;;;;;;;4.47;1.27;;;;;;;;;;4930290;28;20063;-66
2023/03/09 14:11:28;;;;;;;4.85;1.52;;;;;;;;;;4932720;28;20130;-63
2023/03/09 14:14:08;;;;;;;4.95;1.40;;;;;;;;;;4929832;28;20606;-63
2023/03/09 14:16:35;;;;;;;5.85;1.25;;;;;;;;;;4929501;28;20588;-66
2023/03/09 14:19:03;;;;;;;3.75;1.65;;;;;;;;;;4932837;28;20055;-66
2023/03/09 14:21:37;;;;;;;4.00;1.17;;;;;;;;;;4931767;28;20055;-65
2023/03/09 14:24:29;;;;;;;8.35;1.23;;;;;;;;;;4930420;28;20051;-64
2023/03/09 14:26:54;;;;;;;5.53;1.40;;;;;;;;;;4929743;28;20050;-64
2023/03/09 14:29:33;;;;;;;12.60;2.38;;;;;;;;;;4930056;28;20396;-63
2023/03/09 14:32:22;;;;;;;8.15;1.17;;;;;;;;;;4930688;28;20182;-63
2023/03/09 14:34:52;;;;;;;7.18;1.40;;;;;;;;;;4929265;28;20078;-64
2023/03/09 14:37:30;;;;;;;4.10;1.25;;;;;;;;;;4931078;28;20077;-64
2023/03/09 14:39:59;;;;;;;9.30;1.38;;;;;;;;;;4936386;28;20043;-64
2023/03/09 14:42:34;;;;;;;5.85;1.17;;;;;;;;;;4930486;28;20055;-66
2023/03/09 14:45:09;;;;;;;7.00;1.38;;;;;;;;;;4931236;28;20105;-64
2023/03/09 14:47:38;;;;;;;10.10;1.38;;;;;;;;;;4925825;28;20125;-65
2023/03/09 14:50:06;;;;;;;13.60;1.42;;;;;;;;;;4935159;28;20382;-66
2023/03/09 14:52:35;;;;;;;5.97;1.38;;;;;;;;;;4931581;28;20043;-64
2023/03/09 14:55:02;;;;;;;5.85;1.45;;;;;;;;;;4908596;28;20067;-66
2023/03/09 14:57:29;;;;;;;10.52;1.42;;;;;;;;;;4930406;28;20652;-67
2023/03/09 14:59:55;;;;;;;7.57;1.23;;;;;;;;;;4931481;28;20159;-67
2023/03/09 15:02:21;;;;;;;7.10;1.30;;;;;;;;;;4930108;28;20628;-66
2023/03/09 15:04:47;;;;;;;10.40;1.50;;;;;;;;;;4932374;28;20062;-68
2023/03/09 15:07:16;;;;;;;12.98;1.58;;;;;;;;;;4928628;28;20047;-67
2023/03/09 15:09:44;;;;;;;12.80;1.50;;;;;;;;;;4933279;28;20140;-67
2023/03/09 15:12:12;;;;;;;14.13;1.70;;;;;;;;;;4933403;28;20578;-65
2023/03/09 15:14:41;;;;;;;4.25;1.20;;;;;;;;;;4931194;28;20050;-65
2023/03/09 15:17:07;;;;;;;6.82;1.40;;;;;;;;;;4929777;28;20054;-66
2023/03/09 15:19:34;;;;;;;7.00;1.27;;;;;;;;;;4927420;28;20055;-68
2023/03/09 15:22:00;;;;;;;6.28;1.38;;;;;;;;;;4929229;28;20051;-66
2023/03/09 15:24:29;;;;;;;6.72;1.27;;;;;;;;;;4930152;28;20043;-67
2023/03/09 15:26:57;;;;;;;7.75;1.40;;;;;;;;;;4927297;28;20067;-66
2023/03/09 15:29:23;;;;;;;12.65;1.85;;;;;;;;;;4929638;28;20591;-66
2023/03/09 15:31:49;;;;;;;10.82;1.35;;;;;;;;;;4929464;28;20055;-66
2023/03/09 15:34:15;;;;;;;12.45;1.42;;;;;;;;;;4929473;28;20062;-71
2023/03/09 15:36:41;;;;;;;7.95;1.17;;;;;;;;;;4929289;28;20062;-66
2023/03/09 15:39:07;;;;;;;10.00;1.27;;;;;;;;;;4928961;28;20050;-66
2023/03/09 15:41:33;;;;;;;13.68;1.92;;;;;;;;;;4935596;28;20413;-65
2023/03/09 15:43:59;;;;;;;14.13;1.67;;;;;;;;;;4930306;28;20180;-65
2023/03/09 15:46:25;;;;;;;14.70;1.55;;;;;;;;;;4927665;28;20113;-65
2023/03/09 15:48:52;;;;;;;6.38;1.35;;;;;;;;;;4932849;28;20724;-68
2023/03/09 15:51:21;;;;;;;10.02;1.85;;;;;;;;;;4930668;28;22295;-69
2023/03/09 15:53:48;;;;;;;5.18;1.45;;;;;;;;;;4926206;28;20399;-70
2023/03/09 15:56:15;;;;;;;12.70;1.38;;;;;;;;;;4928078;28;20064;-66
2023/03/09 15:58:42;;;;;;;12.73;1.73;;;;;;;;;;4926354;28;20142;-65
2023/03/09 16:01:20;;;;;;;9.82;1.70;;;;;;;;;;4930347;28;20185;-67
2023/03/09 16:03:50;;;;;;;5.20;1.27;;;;;;;;;;4925862;28;20070;-67
2023/03/09 16:06:21;;;;;;;4.13;1.17;;;;;;;;;;4925419;28;20155;-66
2023/03/09 16:08:50;;;;;;;6.60;1.40;;;;;;;;;;4910027;28;20079;-65
2023/03/09 16:11:24;;;;;;;7.45;1.40;;;;;;;;;;4928332;28;21832;-69
2023/03/09 16:13:50;;;;;;;10.48;1.50;;;;;;;;;;4923135;28;20649;-66
2023/03/09 16:16:17;;;;;;;6.03;1.25;;;;;;;;;;4925912;28;20514;-68
2023/03/09 16:18:45;;;;;;;7.63;1.70;;;;;;;;;;4922814;28;20106;-69
2023/03/09 16:21:11;;;;;;;5.93;1.38;;;;;;;;;;4909019;28;20160;-66
2023/03/09 16:23:38;;;;;;;13.65;1.67;;;;;;;;;;4894693;28;20443;-67
2023/03/09 16:26:04;;;;;;;4.90;1.35;;;;;;;;;;4931241;28;20043;-68
2023/03/09 16:28:32;;;;;;;12.93;1.65;;;;;;;;;;4928264;28;20727;-65
2023/03/09 16:30:59;;;;;;;10.90;1.70;;;;;;;;;;4931223;28;20503;-66
2023/03/09 16:33:28;;;;;;;6.80;1.50;;;;;;;;;;4924110;28;20060;-68
2023/03/09 16:36:01;;;;;;;3.83;1.25;;;;;;;;;;4927988;28;20616;-68
2023/03/09 16:38:28;;;;;;;6.90;1.33;;;;;;;;;;4906906;28;21296;-67
2023/03/09 16:40:55;;;;;;;6.28;1.58;;;;;;;;;;4931847;28;20063;-66
2023/03/09 16:43:24;;;;;;;4.40;1.38;;;;;;;;;;4928393;28;20154;-68
2023/03/09 16:45:54;;;;;;;5.55;1.48;;;;;;;;;;4929527;28;20054;-69
2023/03/09 16:48:22;;;;;;;5.97;1.70;;;;;;;;;;4935078;28;20607;-68
2023/03/09 16:50:52;;;;;;;4.80;1.30;;;;;;;;;;4930258;28;20431;-67
2023/03/09 16:53:18;;;;;;;6.97;1.33;;;;;;;;;;4927512;28;20054;-66
2023/03/09 16:56:24;;;;;;;7.25;1.38;;;;;;;;;;4870731;28;1583327;-69
2023/03/09 17:00:08;;;;;;;7.13;1.40;;;;;;;;;;4928432;28;20055;-67
2023/03/09 17:03:45;;;;;;;5.38;1.50;;;;;;;;;;4931640;28;20463;-67
2023/03/09 17:07:25;;;;;;;4.72;1.42;;;;;;;;;;4933231;28;20055;-66
2023/03/09 17:10:26;;;;;;;3.15;1.30;;;;;;;;;;4928933;28;20592;-68
2023/03/09 17:13:32;;;;;;;5.03;1.52;;;;;;;;;;4930814;28;20053;-66
2023/03/09 17:17:15;;;;;;;6.20;1.50;;;;;;;;;;4931506;28;20051;-69
2023/03/09 17:20:56;;;;;;;4.43;1.33;;;;;;;;;;4929236;28;20093;-67
2023/03/09 17:24:36;;;;;;;6.43;1.40;;;;;;;;;;4929761;28;20047;-68
2023/03/09 17:28:18;;;;;;;4.70;1.50;;;;;;;;;;4933380;28;20063;-67
2023/03/09 17:31:58;;;;;;;4.35;1.25;;;;;;;;;;4932589;28;20047;-65
2023/03/09 17:35:39;;;;;;;5.40;1.70;;;;;;;;;;4928909;28;20117;-63
2023/03/09 17:39:19;;;;;;;6.35;1.40;;;;;;;;;;4932690;28;20066;-65
2023/03/09 17:42:59;;;;;;;5.18;1.35;;;;;;;;;;4934968;28;20065;-66
2023/03/09 17:46:40;;;;;;;5.75;1.55;;;;;;;;;;4936023;28;20086;-64
2023/03/09 17:50:20;;;;;;;6.50;1.40;;;;;;;;;;4934312;28;20138;-65
2023/03/09 17:54:01;;;;;;;6.38;1.70;;;;;;;;;;4927587;28;20161;-65
2023/03/09 17:57:41;;;;;;;9.40;1.85;;;;;;;;;;4935564;28;20515;-66
2023/03/09 18:01:38;;;;;;;6.57;1.80;;;;;;;;;;4935625;28;20066;-64
2023/03/09 18:05:18;;;;;;;3.53;1.50;;;;;;;;;;4874127;29;20147;-66
2023/03/09 18:08:19;;;;;;;5.20;1.25;;;;;;;;;;4873377;29;20829;-65
2023/03/09 18:10:45;;;;;;;5.38;1.33;;;;;;;;;;4876956;29;20056;-65
2023/03/09 18:13:14;;;;;;;5.68;1.35;;;;;;;;;;4875024;29;20156;-64
2023/03/09 18:15:41;;;;;;;5.05;1.70;;;;;;;;;;4872388;29;20052;-66
2023/03/09 18:18:07;;;;;;;5.57;1.60;;;;;;;;;;4874436;29;20449;-64
2023/03/09 18:20:33;;;;;;;4.07;1.42;;;;;;;;;;4874912;29;20160;-64
2023/03/09 18:22:58;;;;;;;3.97;1.30;;;;;;;;;;4859174;29;20052;-66
2023/03/09 18:25:25;;;;;;;3.63;1.30;;;;;;;;;;4870745;29;20060;-66
2023/03/09 18:27:51;;;;;;;5.25;1.42;;;;;;;;;;4855099;29;20155;-65
2023/03/09 18:30:17;;;;;;;5.60;1.50;;;;;;;;;;4869773;29;20060;-67